sensor_id;sensor_type;location;lat;lon;timestamp;P1;durP1;ratioP1;P2;durP2;ratioP2
17494;SDS011;8864;51.970;4.614;2023-09-19T00:00:26;2.60;;;0.80;;
17494;SDS011;8864;51.970;4.614;2023-09-19T00:02:53;3.72;;;1.02;;
17494;SDS011;8864;51.970;4.614;2023-09-19T00:05:25;2.05;;;0.75;;
17494;SDS011;8864;51.970;4.614;2023-09-19T00:07:53;2.65;;;0.90;;
17494;SDS011;8864;51.970;4.614;2023-09-19T00:10:21;5.20;;;0.88;;
17494;SDS011;8864;51.970;4.614;2023-09-19T00:12:51;2.60;;;0.80;;
17494;SDS011;8864;51.970;4.614;2023-09-19T00:15:21;2.83;;;0.70;;
17494;SDS011;8864;51.970;4.614;2023-09-19T00:17:49;4.00;;;0.70;;
17494;SDS011;8864;51.970;4.614;2023-09-19T00:20:18;2.63;;;0.90;;
17494;SDS011;8864;51.970;4.614;2023-09-19T00:22:48;1.33;;;0.70;;
17494;SDS011;8864;51.970;4.614;2023-09-19T00:25:15;1.58;;;0.73;;
17494;SDS011;8864;51.970;4.614;2023-09-19T00:27:43;2.95;;;0.82;;
17494;SDS011;8864;51.970;4.614;2023-09-19T00:30:13;2.67;;;0.73;;
17494;SDS011;8864;51.970;4.614;2023-09-19T00:32:44;1.85;;;0.63;;
17494;SDS011;8864;51.970;4.614;2023-09-19T00:35:16;2.55;;;0.70;;
17494;SDS011;8864;51.970;4.614;2023-09-19T00:37:44;1.33;;;0.80;;
17494;SDS011;8864;51.970;4.614;2023-09-19T00:40:11;1.60;;;0.70;;
17494;SDS011;8864;51.970;4.614;2023-09-19T00:42:40;1.23;;;0.50;;
17494;SDS011;8864;51.970;4.614;2023-09-19T00:45:08;3.28;;;1.00;;
17494;SDS011;8864;51.970;4.614;2023-09-19T00:47:37;2.58;;;0.80;;
17494;SDS011;8864;51.970;4.614;2023-09-19T00:50:06;1.67;;;0.60;;
17494;SDS011;8864;51.970;4.614;2023-09-19T00:52:41;1.42;;;0.75;;
17494;SDS011;8864;51.970;4.614;2023-09-19T00:55:10;2.15;;;0.93;;
17494;SDS011;8864;51.970;4.614;2023-09-19T00:57:38;1.98;;;0.65;;
17494;SDS011;8864;51.970;4.614;2023-09-19T01:00:06;3.05;;;0.70;;
17494;SDS011;8864;51.970;4.614;2023-09-19T01:02:42;1.17;;;0.60;;
17494;SDS011;8864;51.970;4.614;2023-09-19T01:05:10;1.90;;;0.77;;
17494;SDS011;8864;51.970;4.614;2023-09-19T01:07:38;3.38;;;0.75;;
17494;SDS011;8864;51.970;4.614;2023-09-19T01:10:09;3.42;;;0.60;;
17494;SDS011;8864;51.970;4.614;2023-09-19T01:12:43;3.20;;;0.70;;
17494;SDS011;8864;51.970;4.614;2023-09-19T01:15:20;2.22;;;0.82;;
17494;SDS011;8864;51.970;4.614;2023-09-19T01:17:57;3.53;;;0.90;;
17494;SDS011;8864;51.970;4.614;2023-09-19T01:20:32;2.35;;;0.80;;
17494;SDS011;8864;51.970;4.614;2023-09-19T01:23:07;1.73;;;0.70;;
17494;SDS011;8864;51.970;4.614;2023-09-19T01:28:34;3.00;;;0.80;;
17494;SDS011;8864;51.970;4.614;2023-09-19T01:31:13;4.03;;;1.00;;
17494;SDS011;8864;51.970;4.614;2023-09-19T01:33:54;2.50;;;0.88;;
17494;SDS011;8864;51.970;4.614;2023-09-19T01:36:25;2.65;;;0.90;;
17494;SDS011;8864;51.970;4.614;2023-09-19T01:38:54;5.57;;;1.00;;
17494;SDS011;8864;51.970;4.614;2023-09-19T01:41:26;2.58;;;0.77;;
17494;SDS011;8864;51.970;4.614;2023-09-19T01:44:02;2.70;;;1.00;;
17494;SDS011;8864;51.970;4.614;2023-09-19T01:46:38;3.22;;;0.80;;
17494;SDS011;8864;51.970;4.614;2023-09-19T01:49:18;5.55;;;1.38;;
17494;SDS011;8864;51.970;4.614;2023-09-19T01:51:59;3.42;;;1.00;;
17494;SDS011;8864;51.970;4.614;2023-09-19T01:54:32;4.03;;;1.10;;
17494;SDS011;8864;51.970;4.614;2023-09-19T01:57:07;1.83;;;0.90;;
17494;SDS011;8864;51.970;4.614;2023-09-19T01:59:43;4.72;;;1.08;;
17494;SDS011;8864;51.970;4.614;2023-09-19T02:02:19;4.85;;;1.20;;
17494;SDS011;8864;51.970;4.614;2023-09-19T02:04:47;3.17;;;0.80;;
17494;SDS011;8864;51.970;4.614;2023-09-19T02:07:15;3.42;;;1.00;;
17494;SDS011;8864;51.970;4.614;2023-09-19T02:09:43;3.22;;;0.88;;
17494;SDS011;8864;51.970;4.614;2023-09-19T02:12:10;5.35;;;1.17;;
17494;SDS011;8864;51.970;4.614;2023-09-19T02:14:37;3.15;;;1.00;;
17494;SDS011;8864;51.970;4.614;2023-09-19T02:17:04;3.70;;;0.80;;
17494;SDS011;8864;51.970;4.614;2023-09-19T02:19:36;2.55;;;0.93;;
17494;SDS011;8864;51.970;4.614;2023-09-19T02:22:03;6.00;;;1.00;;
17494;SDS011;8864;51.970;4.614;2023-09-19T02:24:32;3.95;;;1.10;;
17494;SDS011;8864;51.970;4.614;2023-09-19T02:27:00;3.80;;;1.08;;
17494;SDS011;8864;51.970;4.614;2023-09-19T02:29:29;2.97;;;0.70;;
17494;SDS011;8864;51.970;4.614;2023-09-19T02:31:56;4.20;;;1.00;;
17494;SDS011;8864;51.970;4.614;2023-09-19T02:34:23;3.45;;;0.93;;
17494;SDS011;8864;51.970;4.614;2023-09-19T02:36:52;4.10;;;0.70;;
17494;SDS011;8864;51.970;4.614;2023-09-19T02:39:21;2.30;;;0.90;;
17494;SDS011;8864;51.970;4.614;2023-09-19T02:41:48;4.40;;;1.05;;
17494;SDS011;8864;51.970;4.614;2023-09-19T02:44:15;2.30;;;0.65;;
17494;SDS011;8864;51.970;4.614;2023-09-19T02:46:45;4.13;;;1.20;;
17494;SDS011;8864;51.970;4.614;2023-09-19T02:49:12;3.45;;;0.90;;
17494;SDS011;8864;51.970;4.614;2023-09-19T02:51:39;6.15;;;1.05;;
17494;SDS011;8864;51.970;4.614;2023-09-19T02:54:08;1.98;;;0.80;;
17494;SDS011;8864;51.970;4.614;2023-09-19T02:56:36;3.60;;;0.90;;
17494;SDS011;8864;51.970;4.614;2023-09-19T02:59:03;2.75;;;0.98;;
17494;SDS011;8864;51.970;4.614;2023-09-19T03:01:31;2.03;;;0.80;;
17494;SDS011;8864;51.970;4.614;2023-09-19T03:03:58;4.25;;;0.90;;
17494;SDS011;8864;51.970;4.614;2023-09-19T03:06:25;3.28;;;0.90;;
17494;SDS011;8864;51.970;4.614;2023-09-19T03:08:53;1.48;;;0.57;;
17494;SDS011;8864;51.970;4.614;2023-09-19T03:11:22;2.33;;;0.90;;
17494;SDS011;8864;51.970;4.614;2023-09-19T03:13:53;2.78;;;0.90;;
17494;SDS011;8864;51.970;4.614;2023-09-19T03:16:20;2.90;;;0.90;;
17494;SDS011;8864;51.970;4.614;2023-09-19T03:18:47;3.10;;;1.13;;
17494;SDS011;8864;51.970;4.614;2023-09-19T03:21:15;3.40;;;0.93;;
17494;SDS011;8864;51.970;4.614;2023-09-19T03:23:44;3.08;;;0.98;;
17494;SDS011;8864;51.970;4.614;2023-09-19T03:26:12;3.95;;;1.00;;
17494;SDS011;8864;51.970;4.614;2023-09-19T03:28:42;5.80;;;1.30;;
17494;SDS011;8864;51.970;4.614;2023-09-19T03:31:12;2.10;;;0.90;;
17494;SDS011;8864;51.970;4.614;2023-09-19T03:33:39;5.20;;;1.10;;
17494;SDS011;8864;51.970;4.614;2023-09-19T03:36:07;2.25;;;0.82;;
17494;SDS011;8864;51.970;4.614;2023-09-19T03:38:34;4.65;;;1.00;;
17494;SDS011;8864;51.970;4.614;2023-09-19T03:41:01;5.38;;;0.90;;
17494;SDS011;8864;51.970;4.614;2023-09-19T03:43:29;4.78;;;0.90;;
17494;SDS011;8864;51.970;4.614;2023-09-19T03:46:00;4.03;;;0.90;;
17494;SDS011;8864;51.970;4.614;2023-09-19T03:48:29;2.70;;;0.90;;
17494;SDS011;8864;51.970;4.614;2023-09-19T03:50:55;3.53;;;0.80;;
17494;SDS011;8864;51.970;4.614;2023-09-19T03:53:22;3.22;;;0.82;;
17494;SDS011;8864;51.970;4.614;2023-09-19T03:55:49;3.33;;;0.65;;
17494;SDS011;8864;51.970;4.614;2023-09-19T03:58:16;3.38;;;1.08;;
17494;SDS011;8864;51.970;4.614;2023-09-19T04:00:44;4.13;;;1.15;;
17494;SDS011;8864;51.970;4.614;2023-09-19T04:03:12;5.28;;;1.10;;
17494;SDS011;8864;51.970;4.614;2023-09-19T04:05:44;3.38;;;0.98;;
17494;SDS011;8864;51.970;4.614;2023-09-19T04:08:12;6.40;;;0.95;;
17494;SDS011;8864;51.970;4.614;2023-09-19T04:10:41;2.40;;;1.00;;
17494;SDS011;8864;51.970;4.614;2023-09-19T04:13:08;2.15;;;0.98;;
17494;SDS011;8864;51.970;4.614;2023-09-19T04:15:35;3.95;;;1.02;;
17494;SDS011;8864;51.970;4.614;2023-09-19T04:18:03;5.53;;;1.00;;
17494;SDS011;8864;51.970;4.614;2023-09-19T04:20:32;6.50;;;1.10;;
17494;SDS011;8864;51.970;4.614;2023-09-19T04:22:59;3.92;;;0.90;;
17494;SDS011;8864;51.970;4.614;2023-09-19T04:25:26;2.88;;;0.90;;
17494;SDS011;8864;51.970;4.614;2023-09-19T04:27:53;3.78;;;0.95;;
17494;SDS011;8864;51.970;4.614;2023-09-19T04:30:21;3.08;;;0.95;;
17494;SDS011;8864;51.970;4.614;2023-09-19T04:32:47;1.40;;;0.73;;
17494;SDS011;8864;51.970;4.614;2023-09-19T04:35:16;3.30;;;0.88;;
17494;SDS011;8864;51.970;4.614;2023-09-19T04:37:44;2.88;;;1.00;;
17494;SDS011;8864;51.970;4.614;2023-09-19T04:40:12;3.40;;;1.02;;
17494;SDS011;8864;51.970;4.614;2023-09-19T04:42:42;4.90;;;1.05;;
17494;SDS011;8864;51.970;4.614;2023-09-19T04:45:10;4.70;;;0.70;;
17494;SDS011;8864;51.970;4.614;2023-09-19T04:47:37;3.55;;;1.23;;
17494;SDS011;8864;51.970;4.614;2023-09-19T04:50:05;3.42;;;0.95;;
17494;SDS011;8864;51.970;4.614;2023-09-19T04:52:37;3.40;;;1.15;;
17494;SDS011;8864;51.970;4.614;2023-09-19T04:55:08;5.28;;;1.17;;
17494;SDS011;8864;51.970;4.614;2023-09-19T04:57:36;2.45;;;0.95;;
17494;SDS011;8864;51.970;4.614;2023-09-19T05:00:04;2.13;;;0.77;;
17494;SDS011;8864;51.970;4.614;2023-09-19T05:02:37;3.72;;;0.90;;
17494;SDS011;8864;51.970;4.614;2023-09-19T05:05:04;3.83;;;1.00;;
17494;SDS011;8864;51.970;4.614;2023-09-19T05:07:33;3.58;;;1.15;;
17494;SDS011;8864;51.970;4.614;2023-09-19T05:10:00;3.70;;;1.00;;
17494;SDS011;8864;51.970;4.614;2023-09-19T05:12:32;1.60;;;0.70;;
17494;SDS011;8864;51.970;4.614;2023-09-19T05:15:01;3.80;;;1.00;;
17494;SDS011;8864;51.970;4.614;2023-09-19T05:17:29;4.30;;;1.10;;
17494;SDS011;8864;51.970;4.614;2023-09-19T05:19:56;6.82;;;0.98;;
17494;SDS011;8864;51.970;4.614;2023-09-19T05:22:26;5.03;;;0.90;;
17494;SDS011;8864;51.970;4.614;2023-09-19T05:24:54;4.38;;;0.82;;
17494;SDS011;8864;51.970;4.614;2023-09-19T05:27:21;4.18;;;1.10;;
17494;SDS011;8864;51.970;4.614;2023-09-19T05:29:49;5.68;;;1.30;;
17494;SDS011;8864;51.970;4.614;2023-09-19T05:32:18;4.13;;;1.13;;
17494;SDS011;8864;51.970;4.614;2023-09-19T05:34:45;4.22;;;1.17;;
17494;SDS011;8864;51.970;4.614;2023-09-19T05:37:13;9.02;;;1.42;;
17494;SDS011;8864;51.970;4.614;2023-09-19T05:39:41;5.25;;;1.20;;
17494;SDS011;8864;51.970;4.614;2023-09-19T05:42:09;5.28;;;1.27;;
17494;SDS011;8864;51.970;4.614;2023-09-19T05:44:36;7.70;;;1.40;;
17494;SDS011;8864;51.970;4.614;2023-09-19T05:47:05;6.88;;;1.55;;
17494;SDS011;8864;51.970;4.614;2023-09-19T05:49:34;7.95;;;1.33;;
17494;SDS011;8864;51.970;4.614;2023-09-19T05:52:03;8.40;;;1.52;;
17494;SDS011;8864;51.970;4.614;2023-09-19T05:54:31;6.45;;;1.33;;
17494;SDS011;8864;51.970;4.614;2023-09-19T05:56:59;6.85;;;1.30;;
17494;SDS011;8864;51.970;4.614;2023-09-19T05:59:26;7.07;;;1.77;;
17494;SDS011;8864;51.970;4.614;2023-09-19T06:01:54;5.43;;;1.48;;
17494;SDS011;8864;51.970;4.614;2023-09-19T06:04:25;6.85;;;1.40;;
17494;SDS011;8864;51.970;4.614;2023-09-19T06:06:51;8.73;;;2.00;;
17494;SDS011;8864;51.970;4.614;2023-09-19T06:09:19;6.25;;;1.50;;
17494;SDS011;8864;51.970;4.614;2023-09-19T06:11:46;10.10;;;1.92;;
17494;SDS011;8864;51.970;4.614;2023-09-19T06:14:13;11.80;;;1.33;;
17494;SDS011;8864;51.970;4.614;2023-09-19T06:16:42;5.90;;;1.35;;
17494;SDS011;8864;51.970;4.614;2023-09-19T06:19:10;6.97;;;1.60;;
17494;SDS011;8864;51.970;4.614;2023-09-19T06:21:38;5.93;;;1.52;;
17494;SDS011;8864;51.970;4.614;2023-09-19T06:24:06;10.18;;;2.15;;
17494;SDS011;8864;51.970;4.614;2023-09-19T06:26:33;6.15;;;1.75;;
17494;SDS011;8864;51.970;4.614;2023-09-19T06:29:00;7.70;;;1.73;;
17494;SDS011;8864;51.970;4.614;2023-09-19T06:31:32;5.65;;;1.52;;
17494;SDS011;8864;51.970;4.614;2023-09-19T06:34:00;5.40;;;1.60;;
17494;SDS011;8864;51.970;4.614;2023-09-19T06:36:28;6.45;;;1.80;;
17494;SDS011;8864;51.970;4.614;2023-09-19T06:38:58;7.05;;;1.50;;
17494;SDS011;8864;51.970;4.614;2023-09-19T06:41:25;5.72;;;1.70;;
17494;SDS011;8864;51.970;4.614;2023-09-19T06:43:52;8.07;;;1.90;;
17494;SDS011;8864;51.970;4.614;2023-09-19T06:46:19;7.53;;;1.52;;
17494;SDS011;8864;51.970;4.614;2023-09-19T06:48:46;6.72;;;1.83;;
17494;SDS011;8864;51.970;4.614;2023-09-19T06:51:14;7.22;;;2.05;;
17494;SDS011;8864;51.970;4.614;2023-09-19T06:53:41;5.80;;;1.67;;
17494;SDS011;8864;51.970;4.614;2023-09-19T06:56:10;5.57;;;1.98;;
17494;SDS011;8864;51.970;4.614;2023-09-19T06:58:37;8.07;;;1.67;;
17494;SDS011;8864;51.970;4.614;2023-09-19T07:01:04;6.60;;;1.77;;
17494;SDS011;8864;51.970;4.614;2023-09-19T07:03:31;8.73;;;1.73;;
17494;SDS011;8864;51.970;4.614;2023-09-19T07:05:58;5.38;;;1.65;;
17494;SDS011;8864;51.970;4.614;2023-09-19T07:08:25;6.45;;;1.70;;
17494;SDS011;8864;51.970;4.614;2023-09-19T07:10:53;11.50;;;2.10;;
17494;SDS011;8864;51.970;4.614;2023-09-19T07:13:23;15.45;;;2.08;;
17494;SDS011;8864;51.970;4.614;2023-09-19T07:15:51;9.48;;;2.22;;
17494;SDS011;8864;51.970;4.614;2023-09-19T07:18:18;9.45;;;2.05;;
17494;SDS011;8864;51.970;4.614;2023-09-19T07:20:45;15.38;;;2.50;;
17494;SDS011;8864;51.970;4.614;2023-09-19T07:23:15;8.18;;;1.73;;
17494;SDS011;8864;51.970;4.614;2023-09-19T07:25:43;6.88;;;1.70;;
17494;SDS011;8864;51.970;4.614;2023-09-19T07:28:11;10.75;;;2.45;;
17494;SDS011;8864;51.970;4.614;2023-09-19T07:30:40;14.80;;;2.42;;
17494;SDS011;8864;51.970;4.614;2023-09-19T07:33:07;20.25;;;2.25;;
17494;SDS011;8864;51.970;4.614;2023-09-19T07:35:36;13.88;;;2.40;;
17494;SDS011;8864;51.970;4.614;2023-09-19T07:38:07;12.55;;;1.95;;
17494;SDS011;8864;51.970;4.614;2023-09-19T07:40:35;9.23;;;1.85;;
17494;SDS011;8864;51.970;4.614;2023-09-19T07:43:02;12.85;;;2.58;;
17494;SDS011;8864;51.970;4.614;2023-09-19T07:45:30;9.88;;;2.40;;
17494;SDS011;8864;51.970;4.614;2023-09-19T07:47:58;29.85;;;4.82;;
17494;SDS011;8864;51.970;4.614;2023-09-19T07:50:26;17.00;;;3.22;;
17494;SDS011;8864;51.970;4.614;2023-09-19T07:52:53;15.68;;;3.67;;
17494;SDS011;8864;51.970;4.614;2023-09-19T07:55:21;25.27;;;4.70;;
17494;SDS011;8864;51.970;4.614;2023-09-19T07:57:50;24.42;;;5.22;;
17494;SDS011;8864;51.970;4.614;2023-09-19T08:00:18;21.27;;;4.40;;
17494;SDS011;8864;51.970;4.614;2023-09-19T08:02:45;16.83;;;3.53;;
17494;SDS011;8864;51.970;4.614;2023-09-19T08:05:14;20.15;;;3.97;;
17494;SDS011;8864;51.970;4.614;2023-09-19T08:07:42;11.50;;;3.00;;
17494;SDS011;8864;51.970;4.614;2023-09-19T08:10:13;16.50;;;3.67;;
17494;SDS011;8864;51.970;4.614;2023-09-19T08:12:44;10.93;;;3.03;;
17494;SDS011;8864;51.970;4.614;2023-09-19T08:15:13;15.85;;;3.03;;
17494;SDS011;8864;51.970;4.614;2023-09-19T08:17:40;12.02;;;2.95;;
17494;SDS011;8864;51.970;4.614;2023-09-19T08:20:08;14.65;;;3.15;;
17494;SDS011;8864;51.970;4.614;2023-09-19T08:22:43;14.85;;;2.88;;
17494;SDS011;8864;51.970;4.614;2023-09-19T08:25:17;11.88;;;2.65;;
17494;SDS011;8864;51.970;4.614;2023-09-19T08:27:44;11.60;;;2.75;;
17494;SDS011;8864;51.970;4.614;2023-09-19T08:30:13;12.43;;;2.50;;
17494;SDS011;8864;51.970;4.614;2023-09-19T08:32:41;10.85;;;2.70;;
17494;SDS011;8864;51.970;4.614;2023-09-19T08:35:08;10.13;;;2.25;;
17494;SDS011;8864;51.970;4.614;2023-09-19T08:37:36;8.88;;;2.40;;
17494;SDS011;8864;51.970;4.614;2023-09-19T08:40:05;12.55;;;2.83;;
17494;SDS011;8864;51.970;4.614;2023-09-19T08:42:47;13.57;;;2.38;;
17494;SDS011;8864;51.970;4.614;2023-09-19T08:45:15;12.10;;;2.45;;
17494;SDS011;8864;51.970;4.614;2023-09-19T08:47:45;10.90;;;2.38;;
17494;SDS011;8864;51.970;4.614;2023-09-19T08:50:19;7.80;;;2.10;;
17494;SDS011;8864;51.970;4.614;2023-09-19T08:52:53;9.45;;;2.38;;
17494;SDS011;8864;51.970;4.614;2023-09-19T08:55:27;8.20;;;2.15;;
17494;SDS011;8864;51.970;4.614;2023-09-19T08:57:59;11.02;;;2.38;;
17494;SDS011;8864;51.970;4.614;2023-09-19T09:00:28;14.00;;;2.38;;
17494;SDS011;8864;51.970;4.614;2023-09-19T09:02:57;9.77;;;2.40;;
17494;SDS011;8864;51.970;4.614;2023-09-19T09:05:25;7.70;;;2.70;;
17494;SDS011;8864;51.970;4.614;2023-09-19T09:07:55;7.93;;;2.13;;
17494;SDS011;8864;51.970;4.614;2023-09-19T09:10:24;10.93;;;2.03;;
17494;SDS011;8864;51.970;4.614;2023-09-19T09:12:52;12.02;;;2.40;;
17494;SDS011;8864;51.970;4.614;2023-09-19T09:15:21;11.05;;;2.50;;
17494;SDS011;8864;51.970;4.614;2023-09-19T09:17:49;8.88;;;1.85;;
17494;SDS011;8864;51.970;4.614;2023-09-19T09:20:18;16.55;;;2.38;;
17494;SDS011;8864;51.970;4.614;2023-09-19T09:22:51;10.65;;;2.28;;
17494;SDS011;8864;51.970;4.614;2023-09-19T09:25:20;12.25;;;2.28;;
17494;SDS011;8864;51.970;4.614;2023-09-19T09:27:59;9.57;;;2.10;;
17494;SDS011;8864;51.970;4.614;2023-09-19T09:30:33;11.68;;;2.60;;
17494;SDS011;8864;51.970;4.614;2023-09-19T09:33:08;6.18;;;2.05;;
17494;SDS011;8864;51.970;4.614;2023-09-19T09:35:36;8.15;;;1.83;;
17494;SDS011;8864;51.970;4.614;2023-09-19T09:38:06;10.73;;;2.30;;
17494;SDS011;8864;51.970;4.614;2023-09-19T09:40:45;7.70;;;2.10;;
17494;SDS011;8864;51.970;4.614;2023-09-19T09:43:32;6.50;;;1.90;;
17494;SDS011;8864;51.970;4.614;2023-09-19T09:46:07;9.95;;;1.90;;
17494;SDS011;8864;51.970;4.614;2023-09-19T09:48:58;7.93;;;1.80;;
17494;SDS011;8864;51.970;4.614;2023-09-19T09:51:41;9.50;;;2.35;;
17494;SDS011;8864;51.970;4.614;2023-09-19T09:54:12;7.43;;;1.73;;
17494;SDS011;8864;51.970;4.614;2023-09-19T09:56:53;16.52;;;2.08;;
17494;SDS011;8864;51.970;4.614;2023-09-19T10:02:21;9.02;;;1.95;;
17494;SDS011;8864;51.970;4.614;2023-09-19T10:04:54;16.55;;;2.58;;
17494;SDS011;8864;51.970;4.614;2023-09-19T10:07:34;16.15;;;3.13;;
17494;SDS011;8864;51.970;4.614;2023-09-19T10:10:04;10.23;;;1.88;;
17494;SDS011;8864;51.970;4.614;2023-09-19T10:12:42;14.40;;;2.15;;
17494;SDS011;8864;51.970;4.614;2023-09-19T10:15:15;9.50;;;2.38;;
17494;SDS011;8864;51.970;4.614;2023-09-19T10:17:45;26.95;;;1.85;;
17494;SDS011;8864;51.970;4.614;2023-09-19T10:20:14;16.42;;;2.42;;
17494;SDS011;8864;51.970;4.614;2023-09-19T10:22:59;8.52;;;1.98;;
17494;SDS011;8864;51.970;4.614;2023-09-19T10:25:27;12.82;;;2.60;;
17494;SDS011;8864;51.970;4.614;2023-09-19T10:27:56;8.85;;;1.77;;
17494;SDS011;8864;51.970;4.614;2023-09-19T10:30:29;7.32;;;1.90;;
17494;SDS011;8864;51.970;4.614;2023-09-19T10:33:00;10.18;;;1.90;;
17494;SDS011;8864;51.970;4.614;2023-09-19T10:35:28;10.00;;;1.98;;
17494;SDS011;8864;51.970;4.614;2023-09-19T10:37:57;8.20;;;1.85;;
17494;SDS011;8864;51.970;4.614;2023-09-19T10:40:26;9.35;;;2.03;;
17494;SDS011;8864;51.970;4.614;2023-09-19T10:43:00;10.52;;;1.80;;
17494;SDS011;8864;51.970;4.614;2023-09-19T10:45:31;11.27;;;2.20;;
17494;SDS011;8864;51.970;4.614;2023-09-19T10:48:04;8.90;;;1.60;;
17494;SDS011;8864;51.970;4.614;2023-09-19T10:50:33;7.55;;;2.10;;
17494;SDS011;8864;51.970;4.614;2023-09-19T10:53:10;6.30;;;1.65;;
17494;SDS011;8864;51.970;4.614;2023-09-19T10:55:38;9.77;;;1.67;;
17494;SDS011;8864;51.970;4.614;2023-09-19T10:58:06;9.30;;;1.80;;
17494;SDS011;8864;51.970;4.614;2023-09-19T11:00:54;11.48;;;2.38;;
17494;SDS011;8864;51.970;4.614;2023-09-19T11:03:27;8.75;;;2.15;;
17494;SDS011;8864;51.970;4.614;2023-09-19T11:06:06;6.05;;;1.75;;
17494;SDS011;8864;51.970;4.614;2023-09-19T11:08:51;7.72;;;1.75;;
17494;SDS011;8864;51.970;4.614;2023-09-19T11:11:40;8.27;;;1.77;;
17494;SDS011;8864;51.970;4.614;2023-09-19T11:14:14;9.73;;;1.90;;
17494;SDS011;8864;51.970;4.614;2023-09-19T11:20:21;5.53;;;1.48;;
17494;SDS011;8864;51.970;4.614;2023-09-19T11:23:21;6.45;;;1.88;;
17494;SDS011;8864;51.970;4.614;2023-09-19T11:25:52;8.05;;;1.65;;
17494;SDS011;8864;51.970;4.614;2023-09-19T11:28:27;9.40;;;1.38;;
17494;SDS011;8864;51.970;4.614;2023-09-19T11:30:58;4.70;;;1.17;;
17494;SDS011;8864;51.970;4.614;2023-09-19T11:33:25;7.47;;;1.40;;
17494;SDS011;8864;51.970;4.614;2023-09-19T11:36:00;5.82;;;1.30;;
17494;SDS011;8864;51.970;4.614;2023-09-19T11:41:41;6.95;;;1.38;;
17494;SDS011;8864;51.970;4.614;2023-09-19T11:47:04;5.43;;;1.30;;
17494;SDS011;8864;51.970;4.614;2023-09-19T11:49:32;7.47;;;1.42;;
17494;SDS011;8864;51.970;4.614;2023-09-19T11:52:04;6.78;;;1.35;;
17494;SDS011;8864;51.970;4.614;2023-09-19T11:54:33;4.45;;;1.17;;
17494;SDS011;8864;51.970;4.614;2023-09-19T11:57:05;6.07;;;1.45;;
17494;SDS011;8864;51.970;4.614;2023-09-19T11:59:37;4.40;;;1.13;;
17494;SDS011;8864;51.970;4.614;2023-09-19T12:02:06;5.50;;;1.30;;
17494;SDS011;8864;51.970;4.614;2023-09-19T12:04:36;7.45;;;1.40;;
17494;SDS011;8864;51.970;4.614;2023-09-19T12:07:08;9.98;;;1.20;;
17494;SDS011;8864;51.970;4.614;2023-09-19T12:09:40;5.68;;;1.10;;
17494;SDS011;8864;51.970;4.614;2023-09-19T12:12:09;7.30;;;1.20;;
17494;SDS011;8864;51.970;4.614;2023-09-19T12:14:40;7.05;;;1.20;;
17494;SDS011;8864;51.970;4.614;2023-09-19T12:17:08;8.70;;;1.40;;
17494;SDS011;8864;51.970;4.614;2023-09-19T12:19:35;4.80;;;1.20;;
17494;SDS011;8864;51.970;4.614;2023-09-19T12:22:03;6.53;;;1.17;;
17494;SDS011;8864;51.970;4.614;2023-09-19T12:24:32;9.05;;;1.40;;
17494;SDS011;8864;51.970;4.614;2023-09-19T12:27:04;3.88;;;1.23;;
17494;SDS011;8864;51.970;4.614;2023-09-19T12:29:32;6.03;;;1.27;;
17494;SDS011;8864;51.970;4.614;2023-09-19T12:32:09;6.43;;;1.30;;
17494;SDS011;8864;51.970;4.614;2023-09-19T12:34:36;4.85;;;1.23;;
17494;SDS011;8864;51.970;4.614;2023-09-19T12:37:07;3.80;;;1.10;;
17494;SDS011;8864;51.970;4.614;2023-09-19T12:39:43;5.13;;;1.30;;
17494;SDS011;8864;51.970;4.614;2023-09-19T12:42:14;6.10;;;1.38;;
17494;SDS011;8864;51.970;4.614;2023-09-19T12:44:43;3.88;;;1.05;;
17494;SDS011;8864;51.970;4.614;2023-09-19T12:47:12;5.72;;;1.35;;
17494;SDS011;8864;51.970;4.614;2023-09-19T12:52:43;4.53;;;1.10;;
17494;SDS011;8864;51.970;4.614;2023-09-19T12:55:23;6.82;;;0.95;;
17494;SDS011;8864;51.970;4.614;2023-09-19T12:57:55;6.80;;;1.15;;
17494;SDS011;8864;51.970;4.614;2023-09-19T13:00:34;4.25;;;1.20;;
17494;SDS011;8864;51.970;4.614;2023-09-19T13:03:12;3.38;;;1.10;;
17494;SDS011;8864;51.970;4.614;2023-09-19T13:05:49;2.58;;;0.60;;
17494;SDS011;8864;51.970;4.614;2023-09-19T13:08:17;5.65;;;1.30;;
17494;SDS011;8864;51.970;4.614;2023-09-19T13:11:06;4.35;;;1.20;;
17494;SDS011;8864;51.970;4.614;2023-09-19T13:13:37;3.63;;;0.85;;
17494;SDS011;8864;51.970;4.614;2023-09-19T13:16:06;4.82;;;0.98;;
17494;SDS011;8864;51.970;4.614;2023-09-19T13:18:47;5.88;;;1.40;;
17494;SDS011;8864;51.970;4.614;2023-09-19T13:21:17;4.68;;;1.33;;
17494;SDS011;8864;51.970;4.614;2023-09-19T13:23:53;3.80;;;1.02;;
17494;SDS011;8864;51.970;4.614;2023-09-19T13:26:25;4.07;;;1.00;;
17494;SDS011;8864;51.970;4.614;2023-09-19T13:28:53;5.82;;;0.88;;
17494;SDS011;8864;51.970;4.614;2023-09-19T13:31:20;4.85;;;1.20;;
17494;SDS011;8864;51.970;4.614;2023-09-19T13:33:48;2.50;;;1.10;;
17494;SDS011;8864;51.970;4.614;2023-09-19T13:36:17;6.32;;;1.30;;
17494;SDS011;8864;51.970;4.614;2023-09-19T13:38:44;7.05;;;1.25;;
17494;SDS011;8864;51.970;4.614;2023-09-19T13:41:14;5.10;;;1.25;;
17494;SDS011;8864;51.970;4.614;2023-09-19T13:43:42;3.55;;;1.35;;
17494;SDS011;8864;51.970;4.614;2023-09-19T13:46:13;5.80;;;1.10;;
17494;SDS011;8864;51.970;4.614;2023-09-19T13:48:41;3.67;;;1.42;;
17494;SDS011;8864;51.970;4.614;2023-09-19T13:51:11;4.18;;;1.20;;
17494;SDS011;8864;51.970;4.614;2023-09-19T13:53:38;6.70;;;1.38;;
17494;SDS011;8864;51.970;4.614;2023-09-19T13:56:05;4.32;;;1.15;;
17494;SDS011;8864;51.970;4.614;2023-09-19T13:58:33;4.45;;;1.45;;
17494;SDS011;8864;51.970;4.614;2023-09-19T14:01:01;4.13;;;1.30;;
17494;SDS011;8864;51.970;4.614;2023-09-19T14:03:29;4.78;;;1.23;;
17494;SDS011;8864;51.970;4.614;2023-09-19T14:05:56;5.35;;;1.27;;
17494;SDS011;8864;51.970;4.614;2023-09-19T14:08:23;5.50;;;1.33;;
17494;SDS011;8864;51.970;4.614;2023-09-19T14:10:52;6.22;;;1.33;;
17494;SDS011;8864;51.970;4.614;2023-09-19T14:13:19;4.97;;;1.33;;
17494;SDS011;8864;51.970;4.614;2023-09-19T14:15:46;9.13;;;1.40;;
17494;SDS011;8864;51.970;4.614;2023-09-19T14:18:15;10.20;;;1.85;;
17494;SDS011;8864;51.970;4.614;2023-09-19T14:20:43;8.20;;;1.40;;
17494;SDS011;8864;51.970;4.614;2023-09-19T14:23:10;5.88;;;1.23;;
17494;SDS011;8864;51.970;4.614;2023-09-19T14:25:37;5.85;;;1.60;;
17494;SDS011;8864;51.970;4.614;2023-09-19T14:28:05;4.85;;;1.70;;
17494;SDS011;8864;51.970;4.614;2023-09-19T14:30:33;5.15;;;1.40;;
17494;SDS011;8864;51.970;4.614;2023-09-19T14:33:02;5.55;;;1.48;;
17494;SDS011;8864;51.970;4.614;2023-09-19T14:35:31;4.45;;;1.05;;
17494;SDS011;8864;51.970;4.614;2023-09-19T14:37:58;8.32;;;1.50;;
17494;SDS011;8864;51.970;4.614;2023-09-19T14:40:25;4.63;;;1.50;;
17494;SDS011;8864;51.970;4.614;2023-09-19T14:42:52;6.75;;;1.50;;
17494;SDS011;8864;51.970;4.614;2023-09-19T14:45:19;7.68;;;1.80;;
17494;SDS011;8864;51.970;4.614;2023-09-19T14:47:46;7.30;;;1.98;;
17494;SDS011;8864;51.970;4.614;2023-09-19T14:50:13;9.40;;;1.60;;
17494;SDS011;8864;51.970;4.614;2023-09-19T14:52:42;5.25;;;1.40;;
17494;SDS011;8864;51.970;4.614;2023-09-19T14:55:10;6.03;;;1.50;;
17494;SDS011;8864;51.970;4.614;2023-09-19T14:57:40;4.60;;;1.52;;
17494;SDS011;8864;51.970;4.614;2023-09-19T15:00:10;8.75;;;1.67;;
17494;SDS011;8864;51.970;4.614;2023-09-19T15:02:38;5.63;;;1.55;;
17494;SDS011;8864;51.970;4.614;2023-09-19T15:05:06;7.45;;;1.80;;
17494;SDS011;8864;51.970;4.614;2023-09-19T15:07:35;6.60;;;1.50;;
17494;SDS011;8864;51.970;4.614;2023-09-19T15:10:05;4.57;;;1.42;;
17494;SDS011;8864;51.970;4.614;2023-09-19T15:12:34;8.27;;;1.88;;
17494;SDS011;8864;51.970;4.614;2023-09-19T15:15:03;8.15;;;1.80;;
17494;SDS011;8864;51.970;4.614;2023-09-19T15:17:32;8.38;;;1.83;;
17494;SDS011;8864;51.970;4.614;2023-09-19T15:19:59;5.10;;;1.77;;
17494;SDS011;8864;51.970;4.614;2023-09-19T15:22:27;5.70;;;1.67;;
17494;SDS011;8864;51.970;4.614;2023-09-19T15:24:54;5.53;;;1.73;;
17494;SDS011;8864;51.970;4.614;2023-09-19T15:27:23;6.78;;;1.60;;
17494;SDS011;8864;51.970;4.614;2023-09-19T15:29:50;6.90;;;1.55;;
17494;SDS011;8864;51.970;4.614;2023-09-19T15:32:17;5.18;;;1.70;;
17494;SDS011;8864;51.970;4.614;2023-09-19T15:34:44;7.00;;;1.67;;